sensor_id;sensor_type;location;lat;lon;timestamp;noise_LAeq;noise_LA_min;noise_LA_max;noise_LA01;noise_LA95
69603;Laerm;56810;52.182;4.506;2022-09-09T00:00:13;32.83;30.86;35.25;;
69603;Laerm;56810;52.182;4.506;2022-09-09T00:00:25;32.76;30.86;37.03;;
69603;Laerm;56810;52.182;4.506;2022-09-09T00:00:37;32.30;30.66;34.46;;
69603;Laerm;56810;52.182;4.506;2022-09-09T00:02:20;31.72;30.25;35.86;;
69603;Laerm;56810;52.182;4.506;2022-09-09T00:02:31;31.60;30.12;33.99;;
69603;Laerm;56810;52.182;4.506;2022-09-09T00:03:14;31.12;29.51;33.97;;
69603;Laerm;56810;52.182;4.506;2022-09-09T00:03:27;31.36;30.13;33.63;;
69603;Laerm;56810;52.182;4.506;2022-09-09T00:03:40;31.54;30.33;33.39;;
69603;Laerm;56810;52.182;4.506;2022-09-09T00:04:27;31.50;29.71;33.30;;
69603;Laerm;56810;52.182;4.506;2022-09-09T00:04:38;32.96;31.57;35.62;;
69603;Laerm;56810;52.182;4.506;2022-09-09T00:05:04;32.44;30.52;34.07;;
69603;Laerm;56810;52.182;4.506;2022-09-09T00:05:23;31.55;29.72;41.18;;
69603;Laerm;56810;52.182;4.506;2022-09-09T00:05:45;31.85;30.25;37.23;;
69603;Laerm;56810;52.182;4.506;2022-09-09T00:06:56;31.59;29.45;42.11;;
69603;Laerm;56810;52.182;4.506;2022-09-09T00:07:41;30.60;28.93;32.67;;
69603;Laerm;56810;52.182;4.506;2022-09-09T00:07:54;31.62;29.16;34.26;;
69603;Laerm;56810;52.182;4.506;2022-09-09T00:08:07;31.84;30.67;33.50;;
69603;Laerm;56810;52.182;4.506;2022-09-09T00:08:23;31.71;30.06;33.31;;
69603;Laerm;56810;52.182;4.506;2022-09-09T00:09:00;30.90;29.60;35.91;;
69603;Laerm;56810;52.182;4.506;2022-09-09T00:09:15;32.33;29.52;40.28;;
69603;Laerm;56810;52.182;4.506;2022-09-09T00:09:26;33.08;30.65;40.56;;
69603;Laerm;56810;52.182;4.506;2022-09-09T00:10:25;33.18;30.69;39.60;;
69603;Laerm;56810;52.182;4.506;2022-09-09T00:10:39;33.91;31.55;36.13;;
69603;Laerm;56810;52.182;4.506;2022-09-09T00:10:54;32.07;30.82;33.34;;
69603;Laerm;56810;52.182;4.506;2022-09-09T00:11:08;31.63;30.28;34.10;;
69603;Laerm;56810;52.182;4.506;2022-09-09T00:11:30;31.53;30.12;33.25;;
69603;Laerm;56810;52.182;4.506;2022-09-09T00:11:43;31.93;30.55;34.85;;
69603;Laerm;56810;52.182;4.506;2022-09-09T00:13:34;32.38;31.07;33.95;;
69603;Laerm;56810;52.182;4.506;2022-09-09T00:13:48;32.21;30.65;33.57;;
69603;Laerm;56810;52.182;4.506;2022-09-09T00:14:03;32.99;31.25;35.14;;
69603;Laerm;56810;52.182;4.506;2022-09-09T00:14:45;35.49;30.06;47.02;;
69603;Laerm;56810;52.182;4.506;2022-09-09T00:15:16;38.85;29.89;50.94;;
69603;Laerm;56810;52.182;4.506;2022-09-09T00:15:59;38.14;29.37;55.20;;
69603;Laerm;56810;52.182;4.506;2022-09-09T00:16:15;35.52;30.18;50.90;;
69603;Laerm;56810;52.182;4.506;2022-09-09T00:16:27;33.19;30.13;44.27;;
69603;Laerm;56810;52.182;4.506;2022-09-09T00:16:41;35.63;30.17;51.06;;
69603;Laerm;56810;52.182;4.506;2022-09-09T00:16:55;32.67;29.61;40.19;;
69603;Laerm;56810;52.182;4.506;2022-09-09T00:17:30;32.96;29.56;42.03;;
69603;Laerm;56810;52.182;4.506;2022-09-09T00:17:47;32.74;29.35;54.66;;
69603;Laerm;56810;52.182;4.506;2022-09-09T00:18:01;33.41;30.29;41.31;;
69603;Laerm;56810;52.182;4.506;2022-09-09T00:20:00;31.85;29.05;44.57;;
69603;Laerm;56810;52.182;4.506;2022-09-09T00:20:14;32.71;29.91;40.43;;
69603;Laerm;56810;52.182;4.506;2022-09-09T00:20:35;32.41;29.75;37.94;;
69603;Laerm;56810;52.182;4.506;2022-09-09T00:21:13;31.71;28.97;50.97;;
69603;Laerm;56810;52.182;4.506;2022-09-09T00:21:38;31.02;29.15;40.01;;
69603;Laerm;56810;52.182;4.506;2022-09-09T00:22:04;32.09;29.40;41.15;;
69603;Laerm;56810;52.182;4.506;2022-09-09T00:22:22;32.33;29.46;40.15;;
69603;Laerm;56810;52.182;4.506;2022-09-09T00:22:33;32.31;30.09;40.24;;
69603;Laerm;56810;52.182;4.506;2022-09-09T00:22:46;37.76;31.48;49.36;;
69603;Laerm;56810;52.182;4.506;2022-09-09T00:23:24;34.43;30.00;44.05;;
69603;Laerm;56810;52.182;4.506;2022-09-09T00:23:36;34.36;29.58;46.18;;
69603;Laerm;56810;52.182;4.506;2022-09-09T00:23:50;61.58;32.39;73.03;;
69603;Laerm;56810;52.182;4.506;2022-09-09T00:24:07;53.62;34.42;67.41;;
69603;Laerm;56810;52.182;4.506;2022-09-09T00:24:29;35.97;29.63;45.58;;
69603;Laerm;56810;52.182;4.506;2022-09-09T00:24:43;36.70;30.12;53.27;;
69603;Laerm;56810;52.182;4.506;2022-09-09T00:24:54;32.28;30.25;42.15;;
69603;Laerm;56810;52.182;4.506;2022-09-09T00:25:12;31.20;29.98;32.60;;
69603;Laerm;56810;52.182;4.506;2022-09-09T00:25:29;31.65;29.92;39.30;;
69603;Laerm;56810;52.182;4.506;2022-09-09T00:26:07;35.45;29.44;47.28;;
69603;Laerm;56810;52.182;4.506;2022-09-09T00:26:48;32.65;29.37;45.26;;
69603;Laerm;56810;52.182;4.506;2022-09-09T00:27:01;35.01;29.54;50.90;;
69603;Laerm;56810;52.182;4.506;2022-09-09T00:27:47;41.52;31.09;64.50;;
69603;Laerm;56810;52.182;4.506;2022-09-09T00:27:57;32.47;30.15;40.33;;
69603;Laerm;56810;52.182;4.506;2022-09-09T00:28:13;31.08;29.53;33.98;;
69603;Laerm;56810;52.182;4.506;2022-09-09T00:28:25;31.75;30.33;33.82;;
69603;Laerm;56810;52.182;4.506;2022-09-09T00:28:48;32.53;30.19;35.31;;
69603;Laerm;56810;52.182;4.506;2022-09-09T00:29:09;32.09;30.86;34.58;;
69603;Laerm;56810;52.182;4.506;2022-09-09T00:29:35;31.68;30.23;33.08;;
69603;Laerm;56810;52.182;4.506;2022-09-09T00:29:53;31.59;30.27;33.36;;
69603;Laerm;56810;52.182;4.506;2022-09-09T00:30:47;32.41;30.43;35.02;;
69603;Laerm;56810;52.182;4.506;2022-09-09T00:31:14;32.62;31.19;34.57;;
69603;Laerm;56810;52.182;4.506;2022-09-09T00:31:28;31.71;30.39;33.39;;
69603;Laerm;56810;52.182;4.506;2022-09-09T00:31:38;31.63;29.96;33.51;;
69603;Laerm;56810;52.182;4.506;2022-09-09T00:31:48;30.81;29.69;31.89;;
69603;Laerm;56810;52.182;4.506;2022-09-09T00:32:09;30.77;29.50;32.17;;
69603;Laerm;56810;52.182;4.506;2022-09-09T00:32:22;31.03;29.74;33.88;;
69603;Laerm;56810;52.182;4.506;2022-09-09T00:32:35;31.13;29.68;33.38;;
69603;Laerm;56810;52.182;4.506;2022-09-09T00:32:46;31.29;29.86;33.00;;
69603;Laerm;56810;52.182;4.506;2022-09-09T00:33:00;31.46;29.90;33.65;;
69603;Laerm;56810;52.182;4.506;2022-09-09T00:33:12;31.47;30.11;32.66;;
69603;Laerm;56810;52.182;4.506;2022-09-09T00:33:25;31.28;29.91;32.65;;
69603;Laerm;56810;52.182;4.506;2022-09-09T00:33:36;30.93;29.74;32.17;;
69603;Laerm;56810;52.182;4.506;2022-09-09T00:33:48;30.61;29.44;31.71;;
69603;Laerm;56810;52.182;4.506;2022-09-09T00:34:32;30.96;29.32;41.04;;
69603;Laerm;56810;52.182;4.506;2022-09-09T00:34:42;30.64;29.45;34.09;;
69603;Laerm;56810;52.182;4.506;2022-09-09T00:35:10;31.04;29.50;33.65;;
69603;Laerm;56810;52.182;4.506;2022-09-09T00:35:36;31.89;30.74;33.39;;
69603;Laerm;56810;52.182;4.506;2022-09-09T00:35:48;32.23;30.40;38.46;;
69603;Laerm;56810;52.182;4.506;2022-09-09T00:35:58;33.48;31.96;37.51;;
69603;Laerm;56810;52.182;4.506;2022-09-09T00:36:14;32.25;30.68;34.56;;
69603;Laerm;56810;52.182;4.506;2022-09-09T00:36:26;31.02;29.68;33.01;;
69603;Laerm;56810;52.182;4.506;2022-09-09T00:36:38;30.84;29.64;32.26;;
69603;Laerm;56810;52.182;4.506;2022-09-09T00:36:49;31.36;30.15;33.03;;
69603;Laerm;56810;52.182;4.506;2022-09-09T00:37:01;31.48;29.94;39.90;;
69603;Laerm;56810;52.182;4.506;2022-09-09T00:37:12;30.92;29.86;32.19;;
69603;Laerm;56810;52.182;4.506;2022-09-09T00:37:24;31.37;30.19;35.65;;
69603;Laerm;56810;52.182;4.506;2022-09-09T00:37:35;31.34;29.97;32.75;;
69603;Laerm;56810;52.182;4.506;2022-09-09T00:37:47;30.84;29.68;31.95;;
69603;Laerm;56810;52.182;4.506;2022-09-09T00:38:03;30.84;29.33;32.30;;
69603;Laerm;56810;52.182;4.506;2022-09-09T00:38:22;31.17;29.49;34.00;;
69603;Laerm;56810;52.182;4.506;2022-09-09T00:38:35;31.50;30.35;33.13;;
69603;Laerm;56810;52.182;4.506;2022-09-09T00:38:47;31.02;29.59;32.36;;
69603;Laerm;56810;52.182;4.506;2022-09-09T00:39:00;32.10;30.13;34.51;;
69603;Laerm;56810;52.182;4.506;2022-09-09T00:39:44;31.85;30.66;34.27;;
69603;Laerm;56810;52.182;4.506;2022-09-09T00:39:47;31.77;29.85;42.86;;
69603;Laerm;56810;52.182;4.506;2022-09-09T00:39:59;31.41;29.96;33.75;;
69603;Laerm;56810;52.182;4.506;2022-09-09T00:40:23;32.04;29.66;37.47;;
69603;Laerm;56810;52.182;4.506;2022-09-09T00:40:38;30.95;29.28;35.21;;
69603;Laerm;56810;52.182;4.506;2022-09-09T00:40:51;31.65;30.18;33.29;;
69603;Laerm;56810;52.182;4.506;2022-09-09T00:41:20;32.25;30.26;34.28;;
69603;Laerm;56810;52.182;4.506;2022-09-09T00:41:39;31.81;30.39;33.59;;
69603;Laerm;56810;52.182;4.506;2022-09-09T00:42:24;32.51;30.56;36.71;;
69603;Laerm;56810;52.182;4.506;2022-09-09T00:42:40;31.60;30.03;33.43;;
69603;Laerm;56810;52.182;4.506;2022-09-09T00:42:54;31.35;30.06;32.91;;
69603;Laerm;56810;52.182;4.506;2022-09-09T00:43:30;31.25;29.69;32.61;;
69603;Laerm;56810;52.182;4.506;2022-09-09T00:43:41;32.23;29.83;38.30;;
69603;Laerm;56810;52.182;4.506;2022-09-09T00:43:55;33.84;31.54;39.00;;
69603;Laerm;56810;52.182;4.506;2022-09-09T00:44:18;33.50;30.54;38.61;;
69603;Laerm;56810;52.182;4.506;2022-09-09T00:44:31;33.91;30.21;43.25;;
69603;Laerm;56810;52.182;4.506;2022-09-09T00:45:52;34.06;30.64;42.05;;
69603;Laerm;56810;52.182;4.506;2022-09-09T00:46:39;31.48;30.14;33.22;;
69603;Laerm;56810;52.182;4.506;2022-09-09T00:46:59;30.90;29.67;32.65;;
69603;Laerm;56810;52.182;4.506;2022-09-09T00:47:21;31.17;29.47;32.75;;
69603;Laerm;56810;52.182;4.506;2022-09-09T00:47:53;31.64;29.95;34.56;;
69603;Laerm;56810;52.182;4.506;2022-09-09T00:48:12;31.84;30.35;34.96;;
69603;Laerm;56810;52.182;4.506;2022-09-09T00:48:25;32.23;30.42;36.67;;
69603;Laerm;56810;52.182;4.506;2022-09-09T00:49:09;31.91;30.25;33.89;;
69603;Laerm;56810;52.182;4.506;2022-09-09T00:49:59;31.19;29.31;33.75;;
69603;Laerm;56810;52.182;4.506;2022-09-09T00:50:34;31.30;30.01;32.76;;
69603;Laerm;56810;52.182;4.506;2022-09-09T00:50:54;31.12;29.50;32.64;;
69603;Laerm;56810;52.182;4.506;2022-09-09T00:51:12;31.78;30.06;36.70;;
69603;Laerm;56810;52.182;4.506;2022-09-09T00:52:32;31.67;30.14;42.01;;
69603;Laerm;56810;52.182;4.506;2022-09-09T00:53:10;35.35;29.99;58.27;;
69603;Laerm;56810;52.182;4.506;2022-09-09T00:53:51;31.60;29.78;39.85;;
69603;Laerm;56810;52.182;4.506;2022-09-09T00:54:55;31.01;29.91;32.52;;
69603;Laerm;56810;52.182;4.506;2022-09-09T00:55:41;30.99;29.56;38.79;;
69603;Laerm;56810;52.182;4.506;2022-09-09T00:55:56;30.54;29.23;31.70;;
69603;Laerm;56810;52.182;4.506;2022-09-09T00:56:16;30.46;29.49;32.19;;
69603;Laerm;56810;52.182;4.506;2022-09-09T00:56:35;30.88;29.61;43.28;;
69603;Laerm;56810;52.182;4.506;2022-09-09T00:56:51;31.09;29.79;32.89;;
69603;Laerm;56810;52.182;4.506;2022-09-09T00:57:06;32.30;30.81;37.26;;
69603;Laerm;56810;52.182;4.506;2022-09-09T00:57:31;32.46;30.89;34.02;;
69603;Laerm;56810;52.182;4.506;2022-09-09T00:57:41;31.12;29.58;33.34;;
69603;Laerm;56810;52.182;4.506;2022-09-09T00:57:52;31.13;29.49;34.89;;
69603;Laerm;56810;52.182;4.506;2022-09-09T00:58:02;30.89;29.56;34.79;;
69603;Laerm;56810;52.182;4.506;2022-09-09T00:58:12;30.64;29.28;31.88;;
69603;Laerm;56810;52.182;4.506;2022-09-09T00:58:23;30.45;29.17;33.89;;
69603;Laerm;56810;52.182;4.506;2022-09-09T00:58:33;30.25;29.06;31.72;;
69603;Laerm;56810;52.182;4.506;2022-09-09T00:58:50;30.57;29.38;31.95;;
69603;Laerm;56810;52.182;4.506;2022-09-09T00:59:10;31.17;29.77;34.73;;
69603;Laerm;56810;52.182;4.506;2022-09-09T00:59:28;31.59;29.72;33.42;;
69603;Laerm;56810;52.182;4.506;2022-09-09T00:59:45;31.30;30.17;32.56;;
69603;Laerm;56810;52.182;4.506;2022-09-09T01:00:30;30.65;29.32;33.82;;
69603;Laerm;56810;52.182;4.506;2022-09-09T01:00:52;31.05;29.39;32.41;;
69603;Laerm;56810;52.182;4.506;2022-09-09T01:01:08;31.32;29.71;33.07;;
69603;Laerm;56810;52.182;4.506;2022-09-09T01:01:20;30.74;29.31;32.58;;
69603;Laerm;56810;52.182;4.506;2022-09-09T01:01:30;30.69;29.62;35.18;;
69603;Laerm;56810;52.182;4.506;2022-09-09T01:01:41;30.85;29.66;32.74;;
69603;Laerm;56810;52.182;4.506;2022-09-09T01:01:51;31.25;29.86;32.78;;
69603;Laerm;56810;52.182;4.506;2022-09-09T01:02:59;30.95;29.67;33.44;;
69603;Laerm;56810;52.182;4.506;2022-09-09T01:03:52;30.64;29.53;31.75;;
69603;Laerm;56810;52.182;4.506;2022-09-09T01:04:04;30.80;29.66;32.20;;
69603;Laerm;56810;52.182;4.506;2022-09-09T01:04:21;30.69;29.56;32.04;;
69603;Laerm;56810;52.182;4.506;2022-09-09T01:04:36;32.23;30.08;41.17;;
69603;Laerm;56810;52.182;4.506;2022-09-09T01:04:47;36.72;31.71;43.83;;
69603;Laerm;56810;52.182;4.506;2022-09-09T01:05:00;39.88;33.76;48.82;;
69603;Laerm;56810;52.182;4.506;2022-09-09T01:05:13;36.09;31.38;41.06;;
69603;Laerm;56810;52.182;4.506;2022-09-09T01:05:45;38.16;31.78;46.26;;
69603;Laerm;56810;52.182;4.506;2022-09-09T01:06:30;33.04;30.28;37.08;;
69603;Laerm;56810;52.182;4.506;2022-09-09T01:06:41;32.32;29.99;36.61;;
69603;Laerm;56810;52.182;4.506;2022-09-09T01:06:52;31.78;29.69;35.58;;
69603;Laerm;56810;52.182;4.506;2022-09-09T01:07:10;31.39;29.75;35.48;;
69603;Laerm;56810;52.182;4.506;2022-09-09T01:07:25;31.04;29.06;34.21;;
69603;Laerm;56810;52.182;4.506;2022-09-09T01:07:35;31.23;30.00;32.59;;
69603;Laerm;56810;52.182;4.506;2022-09-09T01:07:47;31.00;29.57;32.76;;
69603;Laerm;56810;52.182;4.506;2022-09-09T01:08:00;31.71;29.66;33.53;;
69603;Laerm;56810;52.182;4.506;2022-09-09T01:09:12;33.05;30.23;41.34;;
69603;Laerm;56810;52.182;4.506;2022-09-09T01:09:55;35.97;30.87;43.10;;
69603;Laerm;56810;52.182;4.506;2022-09-09T01:10:07;32.74;30.19;36.12;;
69603;Laerm;56810;52.182;4.506;2022-09-09T01:10:55;32.19;29.88;36.18;;
69603;Laerm;56810;52.182;4.506;2022-09-09T01:10:59;31.23;29.59;33.61;;
69603;Laerm;56810;52.182;4.506;2022-09-09T01:11:15;31.93;30.13;45.42;;
69603;Laerm;56810;52.182;4.506;2022-09-09T01:11:39;32.45;30.35;39.51;;
69603;Laerm;56810;52.182;4.506;2022-09-09T01:12:38;33.88;31.09;42.32;;
69603;Laerm;56810;52.182;4.506;2022-09-09T01:12:51;33.61;30.59;38.98;;
69603;Laerm;56810;52.182;4.506;2022-09-09T01:13:04;32.92;30.43;37.55;;
69603;Laerm;56810;52.182;4.506;2022-09-09T01:13:28;32.36;30.16;38.31;;
69603;Laerm;56810;52.182;4.506;2022-09-09T01:13:41;31.99;29.85;37.04;;
69603;Laerm;56810;52.182;4.506;2022-09-09T01:13:58;31.43;29.79;33.88;;
69603;Laerm;56810;52.182;4.506;2022-09-09T01:14:14;31.28;29.71;33.60;;
69603;Laerm;56810;52.182;4.506;2022-09-09T01:14:48;32.03;30.50;33.72;;
69603;Laerm;56810;52.182;4.506;2022-09-09T01:15:03;32.54;30.97;34.02;;
69603;Laerm;56810;52.182;4.506;2022-09-09T01:15:22;32.53;31.03;33.76;;
69603;Laerm;56810;52.182;4.506;2022-09-09T01:15:35;31.96;30.42;33.12;;
69603;Laerm;56810;52.182;4.506;2022-09-09T01:15:46;32.14;30.65;34.03;;
69603;Laerm;56810;52.182;4.506;2022-09-09T01:15:58;31.56;30.06;32.85;;
69603;Laerm;56810;52.182;4.506;2022-09-09T01:16:10;31.14;30.08;32.36;;
69603;Laerm;56810;52.182;4.506;2022-09-09T01:16:21;31.16;29.86;33.06;;
69603;Laerm;56810;52.182;4.506;2022-09-09T01:16:31;31.41;29.96;35.17;;
69603;Laerm;56810;52.182;4.506;2022-09-09T01:16:42;32.00;30.66;33.45;;
69603;Laerm;56810;52.182;4.506;2022-09-09T01:16:54;31.49;29.97;34.34;;
69603;Laerm;56810;52.182;4.506;2022-09-09T01:18:13;32.14;30.56;33.76;;
69603;Laerm;56810;52.182;4.506;2022-09-09T01:18:27;33.48;31.48;39.28;;
69603;Laerm;56810;52.182;4.506;2022-09-09T01:18:45;44.18;33.41;52.05;;
69603;Laerm;56810;52.182;4.506;2022-09-09T01:18:56;51.53;44.98;58.47;;
69603;Laerm;56810;52.182;4.506;2022-09-09T01:19:07;56.93;49.44;62.49;;
69603;Laerm;56810;52.182;4.506;2022-09-09T01:19:23;55.02;46.73;62.99;;
69603;Laerm;56810;52.182;4.506;2022-09-09T01:20:10;46.06;37.40;53.32;;
69603;Laerm;56810;52.182;4.506;2022-09-09T01:20:24;40.50;33.17;50.37;;
69603;Laerm;56810;52.182;4.506;2022-09-09T01:20:37;36.60;31.14;42.85;;
69603;Laerm;56810;52.182;4.506;2022-09-09T01:21:19;32.93;30.90;36.15;;
69603;Laerm;56810;52.182;4.506;2022-09-09T01:21:38;32.01;30.31;35.08;;
69603;Laerm;56810;52.182;4.506;2022-09-09T01:22:00;34.91;32.65;37.73;;
69603;Laerm;56810;52.182;4.506;2022-09-09T01:22:22;32.27;30.58;34.40;;
69603;Laerm;56810;52.182;4.506;2022-09-09T01:23:28;34.34;31.28;41.92;;
69603;Laerm;56810;52.182;4.506;2022-09-09T01:24:26;32.34;30.50;36.05;;
69603;Laerm;56810;52.182;4.506;2022-09-09T01:26:44;31.22;29.99;33.50;;
69603;Laerm;56810;52.182;4.506;2022-09-09T01:26:56;31.11;29.89;33.46;;
69603;Laerm;56810;52.182;4.506;2022-09-09T01:27:08;31.17;29.98;33.97;;
69603;Laerm;56810;52.182;4.506;2022-09-09T01:27:19;36.55;30.25;40.01;;
69603;Laerm;56810;52.182;4.506;2022-09-09T01:27:30;34.72;32.35;38.51;;
69603;Laerm;56810;52.182;4.506;2022-09-09T01:27:41;35.46;33.17;38.12;;
69603;Laerm;56810;52.182;4.506;2022-09-09T01:27:56;35.29;32.88;38.20;;
69603;Laerm;56810;52.182;4.506;2022-09-09T01:28:08;54.89;35.78;64.12;;
69603;Laerm;56810;52.182;4.506;2022-09-09T01:28:21;50.40;32.69;63.12;;
69603;Laerm;56810;52.182;4.506;2022-09-09T01:28:32;31.71;29.56;34.55;;
69603;Laerm;56810;52.182;4.506;2022-09-09T01:28:46;31.66;30.00;33.80;;
69603;Laerm;56810;52.182;4.506;2022-09-09T01:28:57;31.65;29.92;34.32;;
69603;Laerm;56810;52.182;4.506;2022-09-09T01:29:08;30.89;29.72;32.37;;
69603;Laerm;56810;52.182;4.506;2022-09-09T01:29:19;31.40;29.88;32.82;;
69603;Laerm;56810;52.182;4.506;2022-09-09T01:29:30;31.36;29.61;33.59;;
69603;Laerm;56810;52.182;4.506;2022-09-09T01:29:41;30.79;29.68;32.04;;
69603;Laerm;56810;52.182;4.506;2022-09-09T01:29:51;30.82;29.61;32.23;;
69603;Laerm;56810;52.182;4.506;2022-09-09T01:30:04;30.57;29.20;33.51;;
69603;Laerm;56810;52.182;4.506;2022-09-09T01:30:16;31.16;29.38;35.51;;
69603;Laerm;56810;52.182;4.506;2022-09-09T01:30:27;31.04;29.09;34.08;;
69603;Laerm;56810;52.182;4.506;2022-09-09T01:30:38;30.47;29.25;31.71;;
69603;Laerm;56810;52.182;4.506;2022-09-09T01:30:49;31.47;29.80;33.56;;
69603;Laerm;56810;52.182;4.506;2022-09-09T01:30:59;31.56;29.88;33.34;;
69603;Laerm;56810;52.182;4.506;2022-09-09T01:31:11;31.34;30.20;32.54;;
69603;Laerm;56810;52.182;4.506;2022-09-09T01:31:29;31.60;30.31;33.15;;
69603;Laerm;56810;52.182;4.506;2022-09-09T01:32:37;31.44;30.02;37.23;;
69603;Laerm;56810;52.182;4.506;2022-09-09T01:32:49;31.57;30.17;35.14;;
69603;Laerm;56810;52.182;4.506;2022-09-09T01:33:00;31.54;29.83;33.32;;
69603;Laerm;56810;52.182;4.506;2022-09-09T01:33:13;31.18;29.56;32.31;;
69603;Laerm;56810;52.182;4.506;2022-09-09T01:33:24;30.71;29.31;37.98;;
69603;Laerm;56810;52.182;4.506;2022-09-09T01:33:34;30.86;29.55;33.21;;
69603;Laerm;56810;52.182;4.506;2022-09-09T01:33:45;30.73;29.61;31.96;;
69603;Laerm;56810;52.182;4.506;2022-09-09T01:33:55;30.93;29.42;32.24;;
69603;Laerm;56810;52.182;4.506;2022-09-09T01:34:09;31.15;29.58;33.28;;
69603;Laerm;56810;52.182;4.506;2022-09-09T01:34:20;30.78;29.55;32.34;;
69603;Laerm;56810;52.182;4.506;2022-09-09T01:34:31;30.87;29.62;33.49;;
69603;Laerm;56810;52.182;4.506;2022-09-09T01:34:43;30.75;29.58;31.89;;
69603;Laerm;56810;52.182;4.506;2022-09-09T01:34:54;30.66;29.54;31.93;;
69603;Laerm;56810;52.182;4.506;2022-09-09T01:35:04;30.78;29.43;32.98;;
69603;Laerm;56810;52.182;4.506;2022-09-09T01:35:54;53.70;30.09;64.18;;
69603;Laerm;56810;52.182;4.506;2022-09-09T01:36:08;32.43;30.27;35.78;;
69603;Laerm;56810;52.182;4.506;2022-09-09T01:36:24;31.06;29.76;32.34;;
69603;Laerm;56810;52.182;4.506;2022-09-09T01:36:41;31.39;30.00;33.15;;
69603;Laerm;56810;52.182;4.506;2022-09-09T01:36:57;31.40;29.66;32.86;;
69603;Laerm;56810;52.182;4.506;2022-09-09T01:37:10;31.18;29.75;32.99;;
69603;Laerm;56810;52.182;4.506;2022-09-09T01:37:21;41.20;31.26;47.43;;
69603;Laerm;56810;52.182;4.506;2022-09-09T01:37:31;60.80;43.74;68.69;;
69603;Laerm;56810;52.182;4.506;2022-09-09T01:37:41;37.76;32.19;44.92;;
69603;Laerm;56810;52.182;4.506;2022-09-09T01:37:52;34.40;31.92;37.76;;
69603;Laerm;56810;52.182;4.506;2022-09-09T01:38:02;32.26;29.71;37.63;;
69603;Laerm;56810;52.182;4.506;2022-09-09T01:38:12;30.38;28.88;32.74;;
69603;Laerm;56810;52.182;4.506;2022-09-09T01:38:24;30.44;29.20;32.39;;
69603;Laerm;56810;52.182;4.506;2022-09-09T01:38:34;30.34;29.29;31.55;;
69603;Laerm;56810;52.182;4.506;2022-09-09T01:38:46;30.36;29.09;32.83;;
69603;Laerm;56810;52.182;4.506;2022-09-09T01:38:56;30.11;28.85;31.21;;
69603;Laerm;56810;52.182;4.506;2022-09-09T01:39:06;30.88;28.97;32.33;;
69603;Laerm;56810;52.182;4.506;2022-09-09T01:39:17;30.88;29.80;33.11;;
69603;Laerm;56810;52.182;4.506;2022-09-09T01:39:27;30.63;29.48;36.85;;
69603;Laerm;56810;52.182;4.506;2022-09-09T01:39:38;30.58;29.43;32.01;;
69603;Laerm;56810;52.182;4.506;2022-09-09T01:39:48;30.37;29.35;31.65;;
69603;Laerm;56810;52.182;4.506;2022-09-09T01:39:59;30.07;28.93;31.54;;
69603;Laerm;56810;52.182;4.506;2022-09-09T01:40:09;30.31;29.02;31.56;;
69603;Laerm;56810;52.182;4.506;2022-09-09T01:40:19;30.22;28.91;31.87;;
69603;Laerm;56810;52.182;4.506;2022-09-09T01:40:30;30.30;29.00;32.47;;
69603;Laerm;56810;52.182;4.506;2022-09-09T01:40:40;30.33;29.09;32.08;;
69603;Laerm;56810;52.182;4.506;2022-09-09T01:40:51;30.27;28.97;32.07;;
69603;Laerm;56810;52.182;4.506;2022-09-09T01:41:04;30.21;28.62;31.90;;
69603;Laerm;56810;52.182;4.506;2022-09-09T01:41:14;30.10;28.96;31.27;;
69603;Laerm;56810;52.182;4.506;2022-09-09T01:41:25;30.25;28.82;34.42;;
69603;Laerm;56810;52.182;4.506;2022-09-09T01:41:35;30.25;28.82;31.91;;
69603;Laerm;56810;52.182;4.506;2022-09-09T01:41:45;30.19;28.79;31.50;;
69603;Laerm;56810;52.182;4.506;2022-09-09T01:41:55;30.19;28.98;31.84;;
69603;Laerm;56810;52.182;4.506;2022-09-09T01:42:07;30.52;28.84;32.57;;
69603;Laerm;56810;52.182;4.506;2022-09-09T01:42:18;30.54;29.20;32.00;;
69603;Laerm;56810;52.182;4.506;2022-09-09T01:42:29;30.66;29.29;32.83;;
69603;Laerm;56810;52.182;4.506;2022-09-09T01:42:39;31.87;29.78;36.30;;
69603;Laerm;56810;52.182;4.506;2022-09-09T01:42:49;33.18;29.75;39.47;;
69603;Laerm;56810;52.182;4.506;2022-09-09T01:42:59;32.60;29.69;38.89;;
69603;Laerm;56810;52.182;4.506;2022-09-09T01:43:10;33.15;30.23;38.83;;
69603;Laerm;56810;52.182;4.506;2022-09-09T01:43:20;31.22;29.11;35.99;;
69603;Laerm;56810;52.182;4.506;2022-09-09T01:43:31;30.79;29.42;32.64;;
69603;Laerm;56810;52.182;4.506;2022-09-09T01:43:42;31.51;30.06;34.58;;
69603;Laerm;56810;52.182;4.506;2022-09-09T01:43:53;32.31;30.25;36.32;;
69603;Laerm;56810;52.182;4.506;2022-09-09T01:44:05;31.03;29.74;32.29;;
69603;Laerm;56810;52.182;4.506;2022-09-09T01:44:15;30.74;29.13;32.34;;
69603;Laerm;56810;52.182;4.506;2022-09-09T01:44:26;30.39;29.10;31.71;;
69603;Laerm;56810;52.182;4.506;2022-09-09T01:44:37;30.50;29.31;32.80;;
69603;Laerm;56810;52.182;4.506;2022-09-09T01:44:47;30.44;29.06;31.92;;
69603;Laerm;56810;52.182;4.506;2022-09-09T01:44:58;30.63;29.32;32.68;;
69603;Laerm;56810;52.182;4.506;2022-09-09T01:45:08;31.77;29.96;35.81;;
69603;Laerm;56810;52.182;4.506;2022-09-09T01:45:18;31.25;29.92;33.05;;
69603;Laerm;56810;52.182;4.506;2022-09-09T01:45:29;38.75;30.76;46.53;;
69603;Laerm;56810;52.182;4.506;2022-09-09T01:45:40;61.16;40.68;69.26;;
69603;Laerm;56810;52.182;4.506;2022-09-09T01:45:53;35.82;31.58;41.54;;
69603;Laerm;56810;52.182;4.506;2022-09-09T01:46:04;31.83;30.14;36.07;;
69603;Laerm;56810;52.182;4.506;2022-09-09T01:46:14;30.85;29.24;32.67;;
69603;Laerm;56810;52.182;4.506;2022-09-09T01:46:24;30.78;29.54;32.18;;
69603;Laerm;56810;52.182;4.506;2022-09-09T01:46:35;30.58;29.18;32.32;;
69603;Laerm;56810;52.182;4.506;2022-09-09T01:46:45;30.18;28.70;31.65;;
69603;Laerm;56810;52.182;4.506;2022-09-09T01:46:56;30.70;29.34;32.43;;
69603;Laerm;56810;52.182;4.506;2022-09-09T01:47:06;32.24;30.59;34.19;;
69603;Laerm;56810;52.182;4.506;2022-09-09T01:47:16;31.04;29.24;32.99;;
69603;Laerm;56810;52.182;4.506;2022-09-09T01:47:27;30.95;29.55;32.33;;
69603;Laerm;56810;52.182;4.506;2022-09-09T01:47:37;31.06;29.58;32.72;;
69603;Laerm;56810;52.182;4.506;2022-09-09T01:47:48;30.32;29.12;31.75;;
69603;Laerm;56810;52.182;4.506;2022-09-09T01:47:58;30.55;29.21;31.99;;
69603;Laerm;56810;52.182;4.506;2022-09-09T01:48:09;30.66;29.44;33.94;;
69603;Laerm;56810;52.182;4.506;2022-09-09T01:48:19;30.47;29.02;32.27;;
69603;Laerm;56810;52.182;4.506;2022-09-09T01:48:30;30.58;29.43;32.35;;
69603;Laerm;56810;52.182;4.506;2022-09-09T01:48:40;30.68;29.44;32.22;;
69603;Laerm;56810;52.182;4.506;2022-09-09T01:48:51;30.46;29.33;32.27;;
69603;Laerm;56810;52.182;4.506;2022-09-09T01:49:03;30.44;29.23;31.72;;
69603;Laerm;56810;52.182;4.506;2022-09-09T01:49:14;30.16;28.80;31.81;;
69603;Laerm;56810;52.182;4.506;2022-09-09T01:49:26;30.12;28.88;31.78;;
69603;Laerm;56810;52.182;4.506;2022-09-09T01:49:36;30.16;28.84;32.65;;
69603;Laerm;56810;52.182;4.506;2022-09-09T01:49:46;30.14;28.60;31.67;;
69603;Laerm;56810;52.182;4.506;2022-09-09T01:49:56;30.93;29.28;32.23;;
69603;Laerm;56810;52.182;4.506;2022-09-09T01:50:08;30.77;29.38;32.72;;
69603;Laerm;56810;52.182;4.506;2022-09-09T01:50:21;35.29;31.12;40.90;;
69603;Laerm;56810;52.182;4.506;2022-09-09T01:50:32;35.12;32.65;38.68;;